AirNav   Air Wisconsin Up To $57,000 Bonus
 
 1269 users online  

MN62 Quast Airport
Hutchinson, Minnesota, USA

GOING TO HUTCHINSON?


FAA INFORMATION EFFECTIVE 15 JULY 2021

Location

FAA Identifier: MN62
Lat/Long: 44-50-59.8640N 094-21-00.9370W
44-50.997733N 094-21.015617W
44.8499622,-94.3502603
(estimated)
Elevation: 1050 ft. / 320 m (estimated)
Variation: 04E (1985)
From city: 3 miles S of HUTCHINSON, MN
Time zone: UTC -5 (UTC -6 during Standard Time)
Zip code: 55350

Airport Operations

Airport use: Private use. Permission required prior to landing
Activation date: 08/1949
Control tower: no
ARTCC: MINNEAPOLIS CENTER
FSS: PRINCETON FLIGHT SERVICE STATION
Attendance: UNATNDD
Wind indicator: yes
Segmented circle: no

Airport Communications

WX AWOS-3 at HCD (1.5 nm NW): 118.525 (320-587-3343)
WX AWOS-3 at GYL (13 nm SE): 119.625 (320-864-5830)
WX AWOS-3 at LJF (16 nm NW): 119.65 (320-693-6456)

Nearby radio navigation aids

VOR radial/distance  VOR name  Freq  Var
DWNr156/14.9DARWIN VORTAC109.0007E
BDHr112/36.7WILLMAR VOR/DME113.7004E
FCMr271/38.6FLYING CLOUD VOR/DME117.7001E

Airport Services

Airframe service: NONE
Powerplant service: NONE

Runway Information

Runway E/W

Dimensions: 2300 x 100 ft. / 701 x 30 m
Surface: turf
RUNWAY E  RUNWAY W
Traffic pattern: leftleft
Obstructions: nonepline

Airport Ownership and Management from official FAA records

Ownership: Privately-owned
Owner: GEORGE QUAST
406 MAIN ST S. PO BOX 233
HUTCHINSON, MN 55350
Phone 612-587-2300
Manager: GEORGE WALTER QUAST
PO BOX 233
HUTCHINSON, MN 55350
Phone 612-587-2300

Airport Operational Statistics

Aircraft based on the field: 3
Single engine airplanes: 3
    

Additional Remarks

FOR CD CTC MINNEAPOLIS ARTCC AT 651-463-5588.

Instrument Procedures

There are no published instrument procedures at MN62.

Some nearby airports with instrument procedures:

KHCD - Hutchinson Municipal Airport-Butler Field (1 nm NW)
KGYL - Glencoe Municipal Airport (13 nm SE)
KLJF - Litchfield Municipal Airport (16 nm NW)
KMGG - Maple Lake Municipal Airport-Bill Mavencamp Sr Field (28 nm NE)
KCFE - Buffalo Municipal Airport (28 nm NE)
 
Loc | Ops | Rwys | IFR | FBO | Links
Com | Nav | Svcs | Stats | Notes
Area around MN62 (Quast Airport)
 
Road maps at: MapQuest Bing Google
 
Aerial photo
No photo
 
Sectional chart

 
Airport distance calculator
Flying to Quast Airport? Find the distance to fly.

From to MN62

Sunrise and sunset
Times for 28-Jul-2021
 Local
(UTC-5)
 Zulu
(UTC)
Morning civil twilight05:2610:26
Sunrise06:0011:00
Sunset20:4801:48
Evening civil twilight21:2202:22

Current date and time
Zulu (UTC)  28-Jul-2021 22:39:07
Local (UTC-5)  28-Jul-2021 17:39:07
 
METAR
KHCD 282215Z AUTO 21009G16KT 10SM CLR 35/26 A2987 RMK AO2 T03470261
KGYL 
13nm SE 
282215Z AUTO 20006G15KT 10SM CLR 33/26 A2986 RMK AO2 T03280262
KLJF 
16nm NW 
282045Z AUTO 24007KT 170V290 10SM CLR 34/26 A2986 RMK AO2
TAF
KRWF 
36nm SW 
281739Z 2818/2918 18012G23KT P6SM SCT200 FM282200 24013G25KT P6SM SCT250 FM290000 27010KT P6SM SCT250 FM290200 30007KT P6SM SCT250 FM290600 34007KT P6SM SCT250
KMKT 
42nm SE 
281739Z 2818/2918 19011KT P6SM SCT250 FM282100 22013G23KT P6SM SCT120 SCT250 FM290400 26007KT P6SM SCT080 BKN150 FM290700 32006KT P6SM SCT200 FM291500 02009KT P6SM FEW200
KSTC 
44nm N 
281739Z 2818/2918 19012G24KT P6SM SCT250 FM282000 22013G25KT P6SM SCT090 BKN150 FM282200 26012G22KT P6SM VCSH SCT060 BKN120 TEMPO 2823/2903 4SM -SHRA BR BKN050 FM290300 33008KT P6SM SCT250
NOTAMs
Click for the latest NOTAMs
NOTAMs are issued by the DoD/FAA and will open in a separate window not controlled by AirNav.

 

 
 

Would you like to see your business listed on this page?

 If your business provides an interesting product or service to pilots, flight crews, aircraft, or users of the Quast Airport, you should consider listing it here.  To start the listing process, click on the button below
 
Add a business
 

Other Pages about Quast Airport

Update a link
 
Copyright © AirNav, LLC. All rights reserved. Privacy Policy  Contact